sensor_id;sensor_type;location;lat;lon;timestamp;P1;durP1;ratioP1;P2;durP2;ratioP2
9128;SDS011;4599;50.906;6.786;2023-10-09T00:03:45;10.80;;;6.77;;
9128;SDS011;4599;50.906;6.786;2023-10-09T00:07:48;12.93;;;6.30;;
9128;SDS011;4599;50.906;6.786;2023-10-09T00:11:49;8.77;;;6.37;;
9128;SDS011;4599;50.906;6.786;2023-10-09T00:15:52;14.53;;;6.37;;
9128;SDS011;4599;50.906;6.786;2023-10-09T00:19:55;9.00;;;5.63;;
9128;SDS011;4599;50.906;6.786;2023-10-09T00:23:57;12.77;;;6.33;;
9128;SDS011;4599;50.906;6.786;2023-10-09T00:27:59;10.20;;;6.17;;
9128;SDS011;4599;50.906;6.786;2023-10-09T00:32:01;10.77;;;6.40;;
9128;SDS011;4599;50.906;6.786;2023-10-09T00:36:04;9.90;;;6.07;;
9128;SDS011;4599;50.906;6.786;2023-10-09T00:40:06;9.97;;;5.97;;
9128;SDS011;4599;50.906;6.786;2023-10-09T00:44:08;10.10;;;6.30;;
9128;SDS011;4599;50.906;6.786;2023-10-09T00:48:10;10.73;;;5.80;;
9128;SDS011;4599;50.906;6.786;2023-10-09T00:52:14;9.60;;;5.83;;
9128;SDS011;4599;50.906;6.786;2023-10-09T00:56:17;10.37;;;5.93;;
9128;SDS011;4599;50.906;6.786;2023-10-09T01:00:19;13.67;;;5.97;;
9128;SDS011;4599;50.906;6.786;2023-10-09T01:04:23;7.37;;;5.57;;
9128;SDS011;4599;50.906;6.786;2023-10-09T01:08:27;8.37;;;5.93;;
9128;SDS011;4599;50.906;6.786;2023-10-09T01:12:29;9.73;;;5.40;;
9128;SDS011;4599;50.906;6.786;2023-10-09T01:16:31;10.00;;;6.07;;
9128;SDS011;4599;50.906;6.786;2023-10-09T01:20:33;10.50;;;5.73;;
9128;SDS011;4599;50.906;6.786;2023-10-09T01:24:36;10.40;;;5.70;;
9128;SDS011;4599;50.906;6.786;2023-10-09T01:28:38;9.17;;;5.67;;
9128;SDS011;4599;50.906;6.786;2023-10-09T01:32:39;8.13;;;5.47;;
9128;SDS011;4599;50.906;6.786;2023-10-09T01:36:41;7.47;;;5.50;;
9128;SDS011;4599;50.906;6.786;2023-10-09T01:40:44;13.60;;;5.90;;
9128;SDS011;4599;50.906;6.786;2023-10-09T01:44:48;10.77;;;5.90;;
9128;SDS011;4599;50.906;6.786;2023-10-09T01:48:49;10.10;;;5.73;;
9128;SDS011;4599;50.906;6.786;2023-10-09T01:52:51;10.27;;;5.43;;
9128;SDS011;4599;50.906;6.786;2023-10-09T01:56:54;11.50;;;5.90;;
9128;SDS011;4599;50.906;6.786;2023-10-09T02:00:56;10.50;;;5.93;;
9128;SDS011;4599;50.906;6.786;2023-10-09T02:04:59;8.80;;;5.80;;
9128;SDS011;4599;50.906;6.786;2023-10-09T02:09:01;10.20;;;5.93;;
9128;SDS011;4599;50.906;6.786;2023-10-09T02:13:06;7.77;;;6.03;;
9128;SDS011;4599;50.906;6.786;2023-10-09T02:17:09;10.07;;;6.17;;
9128;SDS011;4599;50.906;6.786;2023-10-09T02:21:10;11.27;;;5.90;;
9128;SDS011;4599;50.906;6.786;2023-10-09T02:25:12;8.13;;;5.33;;
9128;SDS011;4599;50.906;6.786;2023-10-09T02:29:15;7.57;;;5.57;;
9128;SDS011;4599;50.906;6.786;2023-10-09T02:33:17;7.83;;;5.40;;
9128;SDS011;4599;50.906;6.786;2023-10-09T02:37:19;10.13;;;5.57;;
9128;SDS011;4599;50.906;6.786;2023-10-09T02:41:20;8.53;;;6.03;;
9128;SDS011;4599;50.906;6.786;2023-10-09T02:45:24;8.87;;;5.50;;
9128;SDS011;4599;50.906;6.786;2023-10-09T02:49:25;13.77;;;5.70;;
9128;SDS011;4599;50.906;6.786;2023-10-09T02:53:27;9.90;;;5.00;;
9128;SDS011;4599;50.906;6.786;2023-10-09T02:57:28;7.30;;;5.17;;
9128;SDS011;4599;50.906;6.786;2023-10-09T03:01:32;8.10;;;5.57;;
9128;SDS011;4599;50.906;6.786;2023-10-09T03:05:34;11.13;;;6.03;;
9128;SDS011;4599;50.906;6.786;2023-10-09T03:09:35;9.60;;;5.20;;
9128;SDS011;4599;50.906;6.786;2023-10-09T03:13:37;11.10;;;5.63;;
9128;SDS011;4599;50.906;6.786;2023-10-09T03:17:40;10.30;;;5.67;;
9128;SDS011;4599;50.906;6.786;2023-10-09T03:21:42;10.13;;;5.70;;
9128;SDS011;4599;50.906;6.786;2023-10-09T03:25:43;9.27;;;5.50;;
9128;SDS011;4599;50.906;6.786;2023-10-09T03:29:46;9.33;;;5.47;;
9128;SDS011;4599;50.906;6.786;2023-10-09T03:33:49;12.87;;;5.77;;
9128;SDS011;4599;50.906;6.786;2023-10-09T03:37:51;10.97;;;5.67;;
9128;SDS011;4599;50.906;6.786;2023-10-09T03:41:55;11.00;;;6.20;;
9128;SDS011;4599;50.906;6.786;2023-10-09T03:45:57;10.67;;;5.77;;
9128;SDS011;4599;50.906;6.786;2023-10-09T03:50:00;10.63;;;5.30;;
9128;SDS011;4599;50.906;6.786;2023-10-09T03:54:01;8.37;;;5.33;;
9128;SDS011;4599;50.906;6.786;2023-10-09T03:58:03;9.20;;;5.00;;
9128;SDS011;4599;50.906;6.786;2023-10-09T04:02:05;8.77;;;5.30;;
9128;SDS011;4599;50.906;6.786;2023-10-09T04:06:08;13.20;;;5.33;;
9128;SDS011;4599;50.906;6.786;2023-10-09T04:10:10;13.30;;;5.10;;
9128;SDS011;4599;50.906;6.786;2023-10-09T04:14:11;10.40;;;5.53;;
9128;SDS011;4599;50.906;6.786;2023-10-09T04:18:13;8.33;;;4.93;;
9128;SDS011;4599;50.906;6.786;2023-10-09T04:22:16;9.20;;;5.00;;
9128;SDS011;4599;50.906;6.786;2023-10-09T04:26:19;12.40;;;5.60;;
9128;SDS011;4599;50.906;6.786;2023-10-09T04:30:21;11.37;;;5.07;;
9128;SDS011;4599;50.906;6.786;2023-10-09T04:34:23;6.20;;;4.80;;
9128;SDS011;4599;50.906;6.786;2023-10-09T04:38:26;8.23;;;5.37;;
9128;SDS011;4599;50.906;6.786;2023-10-09T04:42:28;9.40;;;5.20;;
9128;SDS011;4599;50.906;6.786;2023-10-09T04:46:30;9.73;;;5.10;;
9128;SDS011;4599;50.906;6.786;2023-10-09T04:50:33;10.10;;;4.83;;
9128;SDS011;4599;50.906;6.786;2023-10-09T04:54:36;8.67;;;4.80;;
9128;SDS011;4599;50.906;6.786;2023-10-09T04:58:37;8.47;;;4.93;;
9128;SDS011;4599;50.906;6.786;2023-10-09T05:02:40;7.47;;;4.87;;
9128;SDS011;4599;50.906;6.786;2023-10-09T05:06:42;8.60;;;4.80;;
9128;SDS011;4599;50.906;6.786;2023-10-09T05:10:48;7.67;;;4.73;;
9128;SDS011;4599;50.906;6.786;2023-10-09T05:14:50;7.37;;;4.30;;
9128;SDS011;4599;50.906;6.786;2023-10-09T05:18:52;9.97;;;4.70;;
9128;SDS011;4599;50.906;6.786;2023-10-09T05:22:55;10.77;;;5.17;;
9128;SDS011;4599;50.906;6.786;2023-10-09T05:26:58;9.87;;;4.50;;
9128;SDS011;4599;50.906;6.786;2023-10-09T05:30:59;8.37;;;4.67;;
9128;SDS011;4599;50.906;6.786;2023-10-09T05:35:01;9.57;;;4.77;;
9128;SDS011;4599;50.906;6.786;2023-10-09T05:39:03;6.30;;;4.30;;
9128;SDS011;4599;50.906;6.786;2023-10-09T05:43:07;8.60;;;5.13;;
9128;SDS011;4599;50.906;6.786;2023-10-09T05:47:11;6.53;;;4.63;;
9128;SDS011;4599;50.906;6.786;2023-10-09T05:51:13;7.53;;;4.87;;
9128;SDS011;4599;50.906;6.786;2023-10-09T05:55:15;8.50;;;4.83;;
9128;SDS011;4599;50.906;6.786;2023-10-09T05:59:18;7.13;;;4.97;;
9128;SDS011;4599;50.906;6.786;2023-10-09T06:03:20;9.60;;;4.83;;
9128;SDS011;4599;50.906;6.786;2023-10-09T06:07:22;12.33;;;5.50;;
9128;SDS011;4599;50.906;6.786;2023-10-09T06:11:23;8.80;;;4.60;;
9128;SDS011;4599;50.906;6.786;2023-10-09T06:15:27;7.77;;;4.80;;
9128;SDS011;4599;50.906;6.786;2023-10-09T06:19:29;8.20;;;5.07;;
9128;SDS011;4599;50.906;6.786;2023-10-09T06:23:30;8.63;;;4.97;;
9128;SDS011;4599;50.906;6.786;2023-10-09T06:27:35;10.23;;;5.47;;
9128;SDS011;4599;50.906;6.786;2023-10-09T06:31:38;8.87;;;5.23;;
9128;SDS011;4599;50.906;6.786;2023-10-09T06:35:40;9.50;;;5.27;;
9128;SDS011;4599;50.906;6.786;2023-10-09T06:39:41;8.63;;;5.37;;
9128;SDS011;4599;50.906;6.786;2023-10-09T06:43:43;10.43;;;5.10;;
9128;SDS011;4599;50.906;6.786;2023-10-09T06:47:47;9.93;;;4.80;;
9128;SDS011;4599;50.906;6.786;2023-10-09T06:51:50;13.23;;;5.70;;
9128;SDS011;4599;50.906;6.786;2023-10-09T06:55:53;9.80;;;4.90;;
9128;SDS011;4599;50.906;6.786;2023-10-09T06:59:55;10.03;;;4.80;;
9128;SDS011;4599;50.906;6.786;2023-10-09T07:03:58;9.67;;;5.07;;
9128;SDS011;4599;50.906;6.786;2023-10-09T07:08:01;9.17;;;4.70;;
9128;SDS011;4599;50.906;6.786;2023-10-09T07:12:04;10.53;;;5.43;;
9128;SDS011;4599;50.906;6.786;2023-10-09T07:16:06;11.07;;;4.43;;
9128;SDS011;4599;50.906;6.786;2023-10-09T07:20:10;13.77;;;4.83;;
9128;SDS011;4599;50.906;6.786;2023-10-09T07:24:12;8.33;;;4.87;;
9128;SDS011;4599;50.906;6.786;2023-10-09T07:28:14;11.47;;;4.87;;
9128;SDS011;4599;50.906;6.786;2023-10-09T07:32:16;8.33;;;4.53;;
9128;SDS011;4599;50.906;6.786;2023-10-09T07:36:21;8.77;;;4.77;;
9128;SDS011;4599;50.906;6.786;2023-10-09T07:40:22;12.77;;;5.03;;
9128;SDS011;4599;50.906;6.786;2023-10-09T07:44:24;9.40;;;4.90;;
9128;SDS011;4599;50.906;6.786;2023-10-09T07:48:27;10.43;;;4.47;;
9128;SDS011;4599;50.906;6.786;2023-10-09T07:52:34;8.57;;;4.80;;
9128;SDS011;4599;50.906;6.786;2023-10-09T07:56:37;7.77;;;4.87;;
9128;SDS011;4599;50.906;6.786;2023-10-09T08:00:39;6.43;;;4.70;;
9128;SDS011;4599;50.906;6.786;2023-10-09T08:04:41;9.17;;;4.90;;
9128;SDS011;4599;50.906;6.786;2023-10-09T08:08:44;7.33;;;4.80;;
9128;SDS011;4599;50.906;6.786;2023-10-09T08:12:46;9.23;;;5.10;;
9128;SDS011;4599;50.906;6.786;2023-10-09T08:16:49;6.47;;;4.60;;
9128;SDS011;4599;50.906;6.786;2023-10-09T08:20:52;8.13;;;5.13;;
9128;SDS011;4599;50.906;6.786;2023-10-09T08:24:56;12.77;;;5.30;;
9128;SDS011;4599;50.906;6.786;2023-10-09T08:28:58;9.60;;;5.63;;
9128;SDS011;4599;50.906;6.786;2023-10-09T08:32:59;8.33;;;5.20;;
9128;SDS011;4599;50.906;6.786;2023-10-09T08:37:04;11.50;;;5.70;;
9128;SDS011;4599;50.906;6.786;2023-10-09T08:41:07;12.03;;;5.70;;
9128;SDS011;4599;50.906;6.786;2023-10-09T08:45:10;11.70;;;5.50;;
9128;SDS011;4599;50.906;6.786;2023-10-09T08:49:15;12.37;;;5.00;;
9128;SDS011;4599;50.906;6.786;2023-10-09T08:53:18;7.20;;;4.87;;
9128;SDS011;4599;50.906;6.786;2023-10-09T08:57:21;18.07;;;6.10;;
9128;SDS011;4599;50.906;6.786;2023-10-09T09:01:24;10.97;;;5.07;;
9128;SDS011;4599;50.906;6.786;2023-10-09T09:05:27;14.07;;;5.30;;
9128;SDS011;4599;50.906;6.786;2023-10-09T09:09:29;9.27;;;5.30;;
9128;SDS011;4599;50.906;6.786;2023-10-09T09:13:32;8.90;;;4.97;;
9128;SDS011;4599;50.906;6.786;2023-10-09T09:17:34;7.57;;;5.27;;
9128;SDS011;4599;50.906;6.786;2023-10-09T09:21:37;8.80;;;4.50;;
9128;SDS011;4599;50.906;6.786;2023-10-09T09:25:40;9.90;;;4.70;;
9128;SDS011;4599;50.906;6.786;2023-10-09T09:29:47;8.40;;;4.40;;
9128;SDS011;4599;50.906;6.786;2023-10-09T09:33:55;8.27;;;4.97;;
9128;SDS011;4599;50.906;6.786;2023-10-09T09:37:57;12.07;;;5.10;;
9128;SDS011;4599;50.906;6.786;2023-10-09T09:42:00;10.17;;;4.53;;
9128;SDS011;4599;50.906;6.786;2023-10-09T09:46:03;6.80;;;4.20;;
9128;SDS011;4599;50.906;6.786;2023-10-09T09:50:08;7.90;;;4.60;;
9128;SDS011;4599;50.906;6.786;2023-10-09T09:54:10;7.97;;;4.30;;
9128;SDS011;4599;50.906;6.786;2023-10-09T09:58:12;9.67;;;4.47;;
9128;SDS011;4599;50.906;6.786;2023-10-09T10:02:20;9.20;;;4.60;;
9128;SDS011;4599;50.906;6.786;2023-10-09T10:06:26;6.37;;;4.10;;
9128;SDS011;4599;50.906;6.786;2023-10-09T10:10:33;6.80;;;4.00;;
9128;SDS011;4599;50.906;6.786;2023-10-09T10:19:01;6.03;;;4.07;;
9128;SDS011;4599;50.906;6.786;2023-10-09T10:23:16;8.70;;;4.20;;
9128;SDS011;4599;50.906;6.786;2023-10-09T10:27:20;7.20;;;4.00;;
9128;SDS011;4599;50.906;6.786;2023-10-09T10:31:31;7.03;;;3.83;;
9128;SDS011;4599;50.906;6.786;2023-10-09T10:35:54;7.27;;;3.70;;
9128;SDS011;4599;50.906;6.786;2023-10-09T10:39:56;8.67;;;4.60;;
9128;SDS011;4599;50.906;6.786;2023-10-09T10:43:58;7.37;;;3.90;;
9128;SDS011;4599;50.906;6.786;2023-10-09T10:48:01;8.03;;;3.63;;
9128;SDS011;4599;50.906;6.786;2023-10-09T10:52:05;10.30;;;3.70;;
9128;SDS011;4599;50.906;6.786;2023-10-09T10:56:13;4.67;;;3.17;;
9128;SDS011;4599;50.906;6.786;2023-10-09T11:00:17;6.20;;;3.27;;
9128;SDS011;4599;50.906;6.786;2023-10-09T11:04:21;6.87;;;3.33;;
9128;SDS011;4599;50.906;6.786;2023-10-09T11:08:26;11.17;;;3.80;;
9128;SDS011;4599;50.906;6.786;2023-10-09T11:12:27;6.03;;;3.47;;
9128;SDS011;4599;50.906;6.786;2023-10-09T11:16:30;9.57;;;3.70;;
9128;SDS011;4599;50.906;6.786;2023-10-09T11:20:32;7.80;;;3.63;;
9128;SDS011;4599;50.906;6.786;2023-10-09T11:24:38;8.23;;;3.83;;
9128;SDS011;4599;50.906;6.786;2023-10-09T11:28:41;9.07;;;3.90;;
9128;SDS011;4599;50.906;6.786;2023-10-09T11:32:43;6.40;;;3.63;;
9128;SDS011;4599;50.906;6.786;2023-10-09T11:36:45;7.23;;;3.77;;
9128;SDS011;4599;50.906;6.786;2023-10-09T11:40:48;6.27;;;3.63;;
9128;SDS011;4599;50.906;6.786;2023-10-09T11:44:50;4.97;;;3.57;;
9128;SDS011;4599;50.906;6.786;2023-10-09T11:49:01;9.50;;;3.87;;
9128;SDS011;4599;50.906;6.786;2023-10-09T11:53:06;14.67;;;3.70;;
9128;SDS011;4599;50.906;6.786;2023-10-09T11:57:11;6.47;;;3.73;;
9128;SDS011;4599;50.906;6.786;2023-10-09T12:01:14;5.70;;;3.80;;
9128;SDS011;4599;50.906;6.786;2023-10-09T12:05:18;7.00;;;3.83;;
9128;SDS011;4599;50.906;6.786;2023-10-09T12:09:19;8.13;;;3.40;;
9128;SDS011;4599;50.906;6.786;2023-10-09T12:13:22;5.60;;;3.70;;
9128;SDS011;4599;50.906;6.786;2023-10-09T12:17:24;7.50;;;3.23;;
9128;SDS011;4599;50.906;6.786;2023-10-09T12:21:26;8.03;;;3.83;;
9128;SDS011;4599;50.906;6.786;2023-10-09T12:25:28;8.13;;;4.00;;
9128;SDS011;4599;50.906;6.786;2023-10-09T12:29:31;11.23;;;3.70;;
9128;SDS011;4599;50.906;6.786;2023-10-09T12:33:33;8.57;;;4.03;;
9128;SDS011;4599;50.906;6.786;2023-10-09T12:37:35;10.30;;;3.90;;
9128;SDS011;4599;50.906;6.786;2023-10-09T12:41:36;9.23;;;3.87;;
9128;SDS011;4599;50.906;6.786;2023-10-09T12:45:39;9.20;;;3.80;;
9128;SDS011;4599;50.906;6.786;2023-10-09T12:49:41;7.67;;;4.00;;
9128;SDS011;4599;50.906;6.786;2023-10-09T12:53:43;7.23;;;3.80;;
9128;SDS011;4599;50.906;6.786;2023-10-09T12:57:45;7.53;;;3.57;;
9128;SDS011;4599;50.906;6.786;2023-10-09T13:01:49;9.63;;;4.00;;
9128;SDS011;4599;50.906;6.786;2023-10-09T13:05:51;7.90;;;3.87;;
9128;SDS011;4599;50.906;6.786;2023-10-09T13:09:55;9.30;;;4.50;;
9128;SDS011;4599;50.906;6.786;2023-10-09T13:14:00;12.57;;;4.00;;
9128;SDS011;4599;50.906;6.786;2023-10-09T13:18:04;10.83;;;4.07;;
9128;SDS011;4599;50.906;6.786;2023-10-09T13:22:08;10.67;;;4.00;;
9128;SDS011;4599;50.906;6.786;2023-10-09T13:26:09;7.63;;;4.27;;
9128;SDS011;4599;50.906;6.786;2023-10-09T13:30:31;7.40;;;4.30;;
9128;SDS011;4599;50.906;6.786;2023-10-09T13:34:34;11.23;;;4.10;;
9128;SDS011;4599;50.906;6.786;2023-10-09T13:38:36;7.93;;;3.80;;
9128;SDS011;4599;50.906;6.786;2023-10-09T13:42:38;7.37;;;3.60;;
9128;SDS011;4599;50.906;6.786;2023-10-09T13:46:39;6.17;;;3.83;;
9128;SDS011;4599;50.906;6.786;2023-10-09T13:50:43;6.47;;;3.97;;
9128;SDS011;4599;50.906;6.786;2023-10-09T13:54:44;8.17;;;4.07;;
9128;SDS011;4599;50.906;6.786;2023-10-09T13:58:48;10.00;;;3.87;;
9128;SDS011;4599;50.906;6.786;2023-10-09T14:02:50;8.93;;;4.20;;
9128;SDS011;4599;50.906;6.786;2023-10-09T14:06:53;7.73;;;3.80;;
9128;SDS011;4599;50.906;6.786;2023-10-09T14:10:56;7.10;;;4.10;;
9128;SDS011;4599;50.906;6.786;2023-10-09T14:14:58;9.10;;;4.07;;
9128;SDS011;4599;50.906;6.786;2023-10-09T14:19:01;8.43;;;3.90;;
9128;SDS011;4599;50.906;6.786;2023-10-09T14:23:04;7.07;;;3.93;;
9128;SDS011;4599;50.906;6.786;2023-10-09T14:27:06;8.90;;;4.57;;
9128;SDS011;4599;50.906;6.786;2023-10-09T14:31:08;13.07;;;3.90;;
9128;SDS011;4599;50.906;6.786;2023-10-09T14:35:09;9.43;;;3.93;;
9128;SDS011;4599;50.906;6.786;2023-10-09T14:39:13;7.77;;;4.30;;
9128;SDS011;4599;50.906;6.786;2023-10-09T14:43:15;10.37;;;4.37;;
9128;SDS011;4599;50.906;6.786;2023-10-09T14:47:17;9.43;;;4.67;;
9128;SDS011;4599;50.906;6.786;2023-10-09T14:51:19;12.43;;;4.43;;
9128;SDS011;4599;50.906;6.786;2023-10-09T14:55:22;9.43;;;5.10;;
9128;SDS011;4599;50.906;6.786;2023-10-09T14:59:24;7.63;;;4.30;;
9128;SDS011;4599;50.906;6.786;2023-10-09T15:03:26;9.17;;;4.50;;
9128;SDS011;4599;50.906;6.786;2023-10-09T15:07:28;10.30;;;5.33;;
9128;SDS011;4599;50.906;6.786;2023-10-09T15:11:42;7.30;;;4.37;;
9128;SDS011;4599;50.906;6.786;2023-10-09T15:15:47;8.67;;;4.70;;
9128;SDS011;4599;50.906;6.786;2023-10-09T15:19:48;13.60;;;5.23;;
9128;SDS011;4599;50.906;6.786;2023-10-09T15:23:50;9.77;;;5.20;;
9128;SDS011;4599;50.906;6.786;2023-10-09T15:27:54;10.97;;;5.30;;
9128;SDS011;4599;50.906;6.786;2023-10-09T15:31:56;6.73;;;4.40;;
9128;SDS011;4599;50.906;6.786;2023-10-09T15:35:58;7.97;;;4.77;;
9128;SDS011;4599;50.906;6.786;2023-10-09T15:40:00;7.73;;;4.97;;
9128;SDS011;4599;50.906;6.786;2023-10-09T15:44:04;6.93;;;4.70;;
9128;SDS011;4599;50.906;6.786;2023-10-09T15:48:07;9.27;;;4.30;;
9128;SDS011;4599;50.906;6.786;2023-10-09T15:52:09;10.17;;;4.97;;
9128;SDS011;4599;50.906;6.786;2023-10-09T15:56:18;11.03;;;4.40;;
9128;SDS011;4599;50.906;6.786;2023-10-09T16:00:23;10.40;;;4.70;;
9128;SDS011;4599;50.906;6.786;2023-10-09T16:04:25;11.33;;;4.97;;
9128;SDS011;4599;50.906;6.786;2023-10-09T16:08:27;15.03;;;5.00;;
9128;SDS011;4599;50.906;6.786;2023-10-09T16:12:29;11.50;;;4.67;;
9128;SDS011;4599;50.906;6.786;2023-10-09T16:16:32;7.87;;;4.27;;
9128;SDS011;4599;50.906;6.786;2023-10-09T16:20:33;10.70;;;4.70;;
9128;SDS011;4599;50.906;6.786;2023-10-09T16:24:35;9.03;;;4.73;;
9128;SDS011;4599;50.906;6.786;2023-10-09T16:28:40;9.47;;;4.77;;
9128;SDS011;4599;50.906;6.786;2023-10-09T16:32:43;8.87;;;4.50;;
9128;SDS011;4599;50.906;6.786;2023-10-09T16:36:47;9.00;;;4.30;;
9128;SDS011;4599;50.906;6.786;2023-10-09T16:40:51;8.23;;;4.37;;
9128;SDS011;4599;50.906;6.786;2023-10-09T16:44:55;9.57;;;4.70;;
9128;SDS011;4599;50.906;6.786;2023-10-09T16:48:58;7.07;;;4.90;;
9128;SDS011;4599;50.906;6.786;2023-10-09T16:52:59;12.17;;;4.83;;
9128;SDS011;4599;50.906;6.786;2023-10-09T16:57:02;7.20;;;4.93;;
9128;SDS011;4599;50.906;6.786;2023-10-09T17:01:04;8.37;;;4.37;;
9128;SDS011;4599;50.906;6.786;2023-10-09T17:05:08;8.50;;;4.80;;
9128;SDS011;4599;50.906;6.786;2023-10-09T17:09:10;8.90;;;4.77;;
9128;SDS011;4599;50.906;6.786;2023-10-09T17:13:12;10.23;;;4.87;;
9128;SDS011;4599;50.906;6.786;2023-10-09T17:17:14;8.93;;;4.53;;
9128;SDS011;4599;50.906;6.786;2023-10-09T17:21:19;7.87;;;5.00;;
9128;SDS011;4599;50.906;6.786;2023-10-09T17:25:22;12.10;;;5.00;;
9128;SDS011;4599;50.906;6.786;2023-10-09T17:29:24;10.67;;;5.07;;
9128;SDS011;4599;50.906;6.786;2023-10-09T17:33:26;12.10;;;5.13;;
9128;SDS011;4599;50.906;6.786;2023-10-09T17:37:29;9.10;;;4.23;;
9128;SDS011;4599;50.906;6.786;2023-10-09T17:41:30;9.03;;;4.80;;
9128;SDS011;4599;50.906;6.786;2023-10-09T17:45:36;7.57;;;4.73;;
9128;SDS011;4599;50.906;6.786;2023-10-09T17:49:38;11.30;;;4.63;;
9128;SDS011;4599;50.906;6.786;2023-10-09T17:53:41;11.43;;;4.90;;
9128;SDS011;4599;50.906;6.786;2023-10-09T17:57:45;8.30;;;5.00;;
9128;SDS011;4599;50.906;6.786;2023-10-09T18:01:48;11.63;;;4.80;;
9128;SDS011;4599;50.906;6.786;2023-10-09T18:05:50;9.10;;;4.47;;
9128;SDS011;4599;50.906;6.786;2023-10-09T18:09:54;8.43;;;4.47;;
9128;SDS011;4599;50.906;6.786;2023-10-09T18:13:56;11.43;;;5.30;;
9128;SDS011;4599;50.906;6.786;2023-10-09T18:17:58;11.17;;;4.70;;
9128;SDS011;4599;50.906;6.786;2023-10-09T18:22:00;7.93;;;5.33;;
9128;SDS011;4599;50.906;6.786;2023-10-09T18:26:06;12.73;;;5.77;;
9128;SDS011;4599;50.906;6.786;2023-10-09T18:30:08;14.83;;;5.50;;
9128;SDS011;4599;50.906;6.786;2023-10-09T18:34:13;9.77;;;5.03;;
9128;SDS011;4599;50.906;6.786;2023-10-09T18:38:15;10.90;;;5.40;;
9128;SDS011;4599;50.906;6.786;2023-10-09T18:42:18;11.83;;;5.17;;
9128;SDS011;4599;50.906;6.786;2023-10-09T18:46:19;11.63;;;5.77;;
9128;SDS011;4599;50.906;6.786;2023-10-09T18:50:21;12.90;;;5.87;;
9128;SDS011;4599;50.906;6.786;2023-10-09T18:54:23;13.63;;;5.90;;
9128;SDS011;4599;50.906;6.786;2023-10-09T18:58:27;15.43;;;5.53;;
9128;SDS011;4599;50.906;6.786;2023-10-09T19:02:29;9.63;;;5.50;;
9128;SDS011;4599;50.906;6.786;2023-10-09T19:06:31;12.07;;;5.10;;
9128;SDS011;4599;50.906;6.786;2023-10-09T19:10:33;12.53;;;6.57;;
9128;SDS011;4599;50.906;6.786;2023-10-09T19:14:36;11.07;;;6.20;;
9128;SDS011;4599;50.906;6.786;2023-10-09T19:18:37;9.53;;;5.17;;
9128;SDS011;4599;50.906;6.786;2023-10-09T19:22:39;9.53;;;5.23;;
9128;SDS011;4599;50.906;6.786;2023-10-09T19:26:41;11.83;;;5.37;;
9128;SDS011;4599;50.906;6.786;2023-10-09T19:30:45;12.83;;;5.90;;
9128;SDS011;4599;50.906;6.786;2023-10-09T19:34:47;10.13;;;5.87;;
9128;SDS011;4599;50.906;6.786;2023-10-09T19:38:48;11.17;;;5.60;;
9128;SDS011;4599;50.906;6.786;2023-10-09T19:42:50;10.10;;;5.63;;
9128;SDS011;4599;50.906;6.786;2023-10-09T19:46:53;11.40;;;5.67;;
9128;SDS011;4599;50.906;6.786;2023-10-09T19:50:57;9.57;;;5.43;;
9128;SDS011;4599;50.906;6.786;2023-10-09T19:54:59;9.07;;;5.60;;
9128;SDS011;4599;50.906;6.786;2023-10-09T19:59:01;10.30;;;5.63;;
9128;SDS011;4599;50.906;6.786;2023-10-09T20:03:05;11.03;;;5.80;;
9128;SDS011;4599;50.906;6.786;2023-10-09T20:07:07;9.23;;;5.70;;
9128;SDS011;4599;50.906;6.786;2023-10-09T20:11:09;10.20;;;6.03;;
9128;SDS011;4599;50.906;6.786;2023-10-09T20:15:12;10.87;;;5.70;;
9128;SDS011;4599;50.906;6.786;2023-10-09T20:19:15;9.77;;;5.43;;
9128;SDS011;4599;50.906;6.786;2023-10-09T20:23:17;11.00;;;5.90;;
9128;SDS011;4599;50.906;6.786;2023-10-09T20:27:19;10.20;;;6.67;;
9128;SDS011;4599;50.906;6.786;2023-10-09T20:31:21;11.73;;;6.27;;
9128;SDS011;4599;50.906;6.786;2023-10-09T20:35:25;10.13;;;6.20;;
9128;SDS011;4599;50.906;6.786;2023-10-09T20:39:27;19.37;;;6.73;;
9128;SDS011;4599;50.906;6.786;2023-10-09T20:43:29;12.03;;;7.23;;
9128;SDS011;4599;50.906;6.786;2023-10-09T20:47:30;11.23;;;6.90;;
9128;SDS011;4599;50.906;6.786;2023-10-09T20:51:33;11.93;;;7.17;;
9128;SDS011;4599;50.906;6.786;2023-10-09T20:55:50;12.17;;;7.63;;
9128;SDS011;4599;50.906;6.786;2023-10-09T20:59:55;11.07;;;7.70;;
9128;SDS011;4599;50.906;6.786;2023-10-09T21:03:57;10.30;;;6.93;;
9128;SDS011;4599;50.906;6.786;2023-10-09T21:08:00;13.37;;;7.37;;
9128;SDS011;4599;50.906;6.786;2023-10-09T21:12:02;12.60;;;6.83;;
9128;SDS011;4599;50.906;6.786;2023-10-09T21:16:04;11.77;;;6.40;;
9128;SDS011;4599;50.906;6.786;2023-10-09T21:20:06;11.73;;;6.10;;
9128;SDS011;4599;50.906;6.786;2023-10-09T21:24:10;14.60;;;6.53;;
9128;SDS011;4599;50.906;6.786;2023-10-09T21:28:12;13.37;;;6.53;;
9128;SDS011;4599;50.906;6.786;2023-10-09T21:32:14;15.83;;;6.47;;
9128;SDS011;4599;50.906;6.786;2023-10-09T21:36:15;11.63;;;6.63;;
9128;SDS011;4599;50.906;6.786;2023-10-09T21:40:20;12.70;;;6.00;;
9128;SDS011;4599;50.906;6.786;2023-10-09T21:44:26;11.80;;;6.63;;
9128;SDS011;4599;50.906;6.786;2023-10-09T21:48:28;11.67;;;6.93;;
9128;SDS011;4599;50.906;6.786;2023-10-09T21:52:29;11.10;;;7.40;;
9128;SDS011;4599;50.906;6.786;2023-10-09T21:56:32;13.33;;;7.77;;
9128;SDS011;4599;50.906;6.786;2023-10-09T22:00:34;13.23;;;6.87;;
9128;SDS011;4599;50.906;6.786;2023-10-09T22:04:35;17.57;;;6.83;;
9128;SDS011;4599;50.906;6.786;2023-10-09T22:08:37;11.90;;;7.03;;
9128;SDS011;4599;50.906;6.786;2023-10-09T22:12:41;15.53;;;7.53;;
9128;SDS011;4599;50.906;6.786;2023-10-09T22:16:43;16.77;;;7.10;;
9128;SDS011;4599;50.906;6.786;2023-10-09T22:20:44;15.77;;;7.97;;
9128;SDS011;4599;50.906;6.786;2023-10-09T22:24:46;15.07;;;7.83;;
9128;SDS011;4599;50.906;6.786;2023-10-09T22:28:49;15.07;;;7.67;;
9128;SDS011;4599;50.906;6.786;2023-10-09T22:32:51;12.00;;;8.03;;
9128;SDS011;4599;50.906;6.786;2023-10-09T22:36:52;13.80;;;7.57;;
9128;SDS011;4599;50.906;6.786;2023-10-09T22:40:55;10.90;;;7.50;;
9128;SDS011;4599;50.906;6.786;2023-10-09T22:44:57;11.80;;;8.07;;
9128;SDS011;4599;50.906;6.786;2023-10-09T22:48:59;14.50;;;8.20;;
9128;SDS011;4599;50.906;6.786;2023-10-09T22:53:01;17.23;;;8.43;;
9128;SDS011;4599;50.906;6.786;2023-10-09T22:57:04;12.67;;;7.73;;
9128;SDS011;4599;50.906;6.786;2023-10-09T23:01:07;16.77;;;8.33;;
9128;SDS011;4599;50.906;6.786;2023-10-09T23:05:08;16.67;;;8.33;;
9128;SDS011;4599;50.906;6.786;2023-10-09T23:09:10;15.40;;;7.93;;
9128;SDS011;4599;50.906;6.786;2023-10-09T23:13:11;19.83;;;8.23;;
9128;SDS011;4599;50.906;6.786;2023-10-09T23:17:14;13.67;;;8.60;;
9128;SDS011;4599;50.906;6.786;2023-10-09T23:21:16;14.67;;;8.57;;
9128;SDS011;4599;50.906;6.786;2023-10-09T23:25:18;16.23;;;9.20;;
9128;SDS011;4599;50.906;6.786;2023-10-09T23:29:21;17.13;;;10.47;;
9128;SDS011;4599;50.906;6.786;2023-10-09T23:33:26;15.13;;;9.10;;
9128;SDS011;4599;50.906;6.786;2023-10-09T23:37:27;21.00;;;10.23;;
9128;SDS011;4599;50.906;6.786;2023-10-09T23:41:29;19.43;;;11.33;;
9128;SDS011;4599;50.906;6.786;2023-10-09T23:45:31;17.80;;;10.20;;
9128;SDS011;4599;50.906;6.786;2023-10-09T23:49:34;17.20;;;10.97;;
9128;SDS011;4599;50.906;6.786;2023-10-09T23:53:36;16.50;;;10.07;;
9128;SDS011;4599;50.906;6.786;2023-10-09T23:57:38;18.60;;;10.97;;
